Time;durP1;ratioP1;P1;durP2;ratioP2;P2;SDS_P1;SDS_P2;PMS_P1;PMS_P2;Temp;Humidity;BMP_temperature;BMP_pressure;BME280_temperature;BME280_humidity;BME280_pressure;Samples;Min_cycle;Max_cycle;Signal;HPM_P1;HPM_P2
2022/03/15 00:01:13;;;;;;;22.42;7.50;;;4.10;99.90;;;;;;6197707;23;20016;-80
2022/03/15 00:03:38;;;;;;;21.15;8.30;;;4.10;99.90;;;;;;6198669;23;20424;-80
2022/03/15 00:06:04;;;;;;;16.00;7.50;;;4.20;99.90;;;;;;6198299;23;20092;-80
2022/03/15 00:08:30;;;;;;;21.83;7.97;;;4.20;99.90;;;;;;6172008;23;20019;-80
2022/03/15 00:10:58;;;;;;;17.25;7.38;;;4.10;99.90;;;;;;6198731;23;20012;-80
2022/03/15 00:13:28;;;;;;;19.55;7.10;;;4.10;99.90;;;;;;6197128;23;20060;-80
2022/03/15 00:15:55;;;;;;;17.85;6.93;;;4.10;99.90;;;;;;6188519;23;20079;-77
2022/03/15 00:18:20;;;;;;;19.75;6.78;;;4.00;99.90;;;;;;6186981;23;20020;-77
2022/03/15 00:20:47;;;;;;;16.02;7.45;;;3.90;99.90;;;;;;6186630;23;20026;-78
2022/03/15 00:23:12;;;;;;;14.32;7.00;;;3.90;99.90;;;;;;6187075;23;20067;-77
2022/03/15 00:25:38;;;;;;;19.75;8.05;;;3.80;99.90;;;;;;6186903;23;20024;-78
2022/03/15 00:28:04;;;;;;;16.50;8.18;;;3.90;99.90;;;;;;6187097;23;20075;-77
2022/03/15 00:30:29;;;;;;;15.70;7.75;;;3.80;99.90;;;;;;6186777;23;20039;-77
2022/03/15 00:32:55;;;;;;;16.65;8.40;;;3.80;99.90;;;;;;6187060;23;20012;-77
2022/03/15 00:35:24;;;;;;;19.98;9.25;;;3.80;99.90;;;;;;6186866;23;20021;-77
2022/03/15 00:37:54;;;;;;;16.85;9.18;;;3.80;99.90;;;;;;6186915;23;20020;-77
2022/03/15 00:40:22;;;;;;;13.57;7.35;;;3.80;99.90;;;;;;6186920;23;20020;-77
2022/03/15 00:42:51;;;;;;;15.07;6.88;;;3.80;99.90;;;;;;6186767;23;20023;-77
2022/03/15 00:45:18;;;;;;;15.85;7.25;;;3.70;99.90;;;;;;6186417;23;20323;-77
2022/03/15 00:47:44;;;;;;;22.92;9.10;;;3.70;99.90;;;;;;6186821;23;20019;-77
2022/03/15 00:50:10;;;;;;;20.02;6.93;;;3.70;99.90;;;;;;6186522;23;20410;-77
2022/03/15 00:52:36;;;;;;;16.58;6.18;;;3.70;99.90;;;;;;6187082;23;20043;-77
2022/03/15 00:55:02;;;;;;;13.00;7.28;;;3.70;99.90;;;;;;6186839;23;20350;-77
2022/03/15 00:57:28;;;;;;;12.48;6.63;;;3.60;99.90;;;;;;6161917;23;20092;-77
2022/03/15 00:59:55;;;;;;;17.30;7.32;;;3.60;99.90;;;;;;6186323;23;20092;-77
2022/03/15 01:02:20;;;;;;;21.30;7.05;;;3.60;99.90;;;;;;6186759;23;20008;-77
2022/03/15 01:04:46;;;;;;;14.05;7.55;;;3.70;99.90;;;;;;6186841;23;20579;-77
2022/03/15 01:07:12;;;;;;;12.15;6.95;;;3.70;99.90;;;;;;6186789;23;20012;-77
2022/03/15 01:09:38;;;;;;;11.10;6.65;;;3.70;99.90;;;;;;6186266;23;20013;-77
2022/03/15 01:12:04;;;;;;;11.30;6.70;;;3.70;99.90;;;;;;6186685;23;20052;-77
2022/03/15 01:14:30;;;;;;;13.05;7.18;;;3.70;99.90;;;;;;6186663;23;20012;-77
2022/03/15 01:16:56;;;;;;;15.05;6.63;;;3.80;99.90;;;;;;6186646;23;20015;-77
2022/03/15 01:19:24;;;;;;;17.90;7.07;;;3.80;99.90;;;;;;6186671;23;20035;-78
2022/03/15 01:21:53;;;;;;;13.40;6.45;;;3.90;99.90;;;;;;6186411;23;20095;-77
2022/03/15 01:24:19;;;;;;;19.08;6.82;;;3.90;99.90;;;;;;6186598;23;20016;-77
2022/03/15 01:26:46;;;;;;;15.95;7.47;;;3.80;99.90;;;;;;6186281;23;20023;-77
2022/03/15 01:29:11;;;;;;;23.73;7.55;;;3.80;99.90;;;;;;6186662;23;20058;-77
2022/03/15 01:31:37;;;;;;;14.43;7.57;;;3.80;99.90;;;;;;6186233;23;20020;-77
2022/03/15 01:34:03;;;;;;;14.15;7.35;;;3.70;99.90;;;;;;6186640;23;20008;-77
2022/03/15 01:36:30;;;;;;;15.63;7.10;;;3.70;99.90;;;;;;6186624;23;20371;-77
2022/03/15 01:38:57;;;;;;;15.73;7.05;;;3.70;99.90;;;;;;6213020;23;20016;-77
2022/03/15 01:41:23;;;;;;;18.27;7.10;;;3.70;99.90;;;;;;6186252;23;20023;-77
2022/03/15 01:43:50;;;;;;;13.93;6.90;;;3.60;99.90;;;;;;6186386;23;20603;-77
2022/03/15 01:46:16;;;;;;;16.38;7.32;;;3.60;99.90;;;;;;6186551;23;20008;-77
2022/03/15 01:48:42;;;;;;;15.98;7.15;;;3.60;99.90;;;;;;6186600;23;20028;-78
2022/03/15 01:51:09;;;;;;;15.18;6.38;;;3.60;99.90;;;;;;6186577;23;20016;-78
2022/03/15 01:53:37;;;;;;;14.18;7.40;;;3.60;99.90;;;;;;6212979;23;20446;-77
2022/03/15 01:56:03;;;;;;;14.35;5.70;;;3.70;99.90;;;;;;6187028;23;20062;-78
2022/03/15 01:58:28;;;;;;;18.85;8.38;;;3.70;99.90;;;;;;6188425;23;20016;-77
2022/03/15 02:00:54;;;;;;;10.85;7.15;;;3.70;99.90;;;;;;6187881;23;20024;-77
2022/03/15 02:03:20;;;;;;;23.40;8.60;;;3.70;99.90;;;;;;6188215;23;20074;-77
2022/03/15 02:05:45;;;;;;;19.73;8.10;;;3.70;99.90;;;;;;6188443;23;20012;-78
2022/03/15 02:08:16;;;;;;;22.58;8.52;;;3.70;99.90;;;;;;6188282;23;20009;-78
2022/03/15 02:10:42;;;;;;;23.15;8.80;;;3.80;99.90;;;;;;6187720;23;20385;-77
2022/03/15 02:13:09;;;;;;;23.00;8.43;;;3.80;99.90;;;;;;6188316;23;20450;-78
2022/03/15 02:15:34;;;;;;;16.65;7.65;;;3.80;99.90;;;;;;6188193;23;20422;-77
2022/03/15 02:18:00;;;;;;;13.48;6.93;;;3.80;99.90;;;;;;6188414;23;20016;-77
2022/03/15 02:20:27;;;;;;;24.00;8.65;;;3.80;99.90;;;;;;6187969;23;20104;-78
2022/03/15 02:22:53;;;;;;;19.73;8.55;;;3.70;99.90;;;;;;6188168;23;20021;-77
2022/03/15 02:25:18;;;;;;;23.50;9.35;;;3.70;99.90;;;;;;6188202;23;20453;-77
2022/03/15 02:27:44;;;;;;;25.30;9.82;;;3.70;99.90;;;;;;6188246;23;20013;-77
2022/03/15 02:30:11;;;;;;;27.45;10.05;;;3.70;99.90;;;;;;6187643;23;20016;-78
2022/03/15 02:32:38;;;;;;;25.58;9.98;;;3.70;99.90;;;;;;6188158;23;20350;-77
2022/03/15 02:35:05;;;;;;;25.45;10.90;;;3.70;99.90;;;;;;6187986;23;20029;-77
2022/03/15 02:37:31;;;;;;;21.25;9.32;;;3.70;99.90;;;;;;6187854;23;20720;-77
2022/03/15 02:39:57;;;;;;;25.55;10.88;;;3.60;99.90;;;;;;6187780;23;20017;-77
2022/03/15 02:42:22;;;;;;;18.45;7.85;;;3.60;99.90;;;;;;6188039;23;20024;-77
2022/03/15 02:44:48;;;;;;;20.88;8.50;;;3.50;99.90;;;;;;6187953;23;20044;-77
2022/03/15 02:47:13;;;;;;;18.83;8.32;;;3.50;99.90;;;;;;6188486;23;20013;-78
2022/03/15 02:49:39;;;;;;;24.77;8.63;;;3.60;99.90;;;;;;6189886;23;20019;-79
2022/03/15 02:52:05;;;;;;;16.38;7.43;;;3.60;99.90;;;;;;6189791;23;20059;-79
2022/03/15 02:54:30;;;;;;;16.63;8.13;;;3.50;99.90;;;;;;6189815;23;20016;-79
2022/03/15 02:56:56;;;;;;;16.48;7.60;;;3.40;99.90;;;;;;6189472;23;20024;-79
2022/03/15 02:59:22;;;;;;;15.07;7.68;;;3.30;99.90;;;;;;6189599;23;20047;-79
2022/03/15 03:01:48;;;;;;;20.27;8.50;;;3.20;99.90;;;;;;6189835;23;20014;-79
2022/03/15 03:04:15;;;;;;;15.43;9.10;;;3.20;99.90;;;;;;6189929;23;20087;-79
2022/03/15 03:06:41;;;;;;;14.73;6.72;;;3.20;99.90;;;;;;6190079;23;20449;-79
2022/03/15 03:09:07;;;;;;;18.35;7.90;;;3.10;99.90;;;;;;6189393;23;20466;-79
2022/03/15 03:11:33;;;;;;;15.90;6.78;;;3.10;99.90;;;;;;6188780;23;20028;-79
2022/03/15 03:14:00;;;;;;;14.75;7.60;;;3.10;99.90;;;;;;6189253;23;20099;-79
2022/03/15 03:16:26;;;;;;;13.05;6.43;;;3.10;99.90;;;;;;6189688;23;20012;-79
2022/03/15 03:18:58;;;;;;;13.45;7.28;;;3.00;99.90;;;;;;6189704;23;20047;-79
2022/03/15 03:21:28;;;;;;;13.27;7.32;;;3.00;99.90;;;;;;6189642;23;20009;-79
2022/03/15 03:23:55;;;;;;;12.77;6.75;;;2.90;99.90;;;;;;6189652;23;20013;-79
2022/03/15 03:26:23;;;;;;;11.80;6.63;;;2.90;99.90;;;;;;6189954;23;20013;-79
2022/03/15 03:28:52;;;;;;;10.00;6.30;;;3.00;99.90;;;;;;6189201;23;20401;-79
2022/03/15 03:31:18;;;;;;;10.80;6.22;;;3.00;99.90;;;;;;6188455;23;20013;-79
2022/03/15 03:33:43;;;;;;;8.77;4.97;;;3.00;99.90;;;;;;6189143;23;20019;-79
2022/03/15 03:36:09;;;;;;;8.57;5.22;;;3.00;99.90;;;;;;6189368;23;20016;-79
2022/03/15 03:38:36;;;;;;;10.68;6.00;;;2.90;99.90;;;;;;6164661;23;20036;-79
2022/03/15 03:41:03;;;;;;;12.07;5.72;;;2.90;99.90;;;;;;6188736;23;20044;-79
2022/03/15 03:43:29;;;;;;;14.43;5.82;;;2.90;99.90;;;;;;6194097;23;20029;-80
2022/03/15 03:45:55;;;;;;;12.40;5.95;;;2.80;99.90;;;;;;6199168;23;20015;-80
2022/03/15 03:48:23;;;;;;;15.90;7.55;;;2.80;99.90;;;;;;6199501;23;20083;-80
2022/03/15 03:50:50;;;;;;;15.70;7.75;;;2.80;99.90;;;;;;6197530;23;20030;-80
2022/03/15 03:53:17;;;;;;;16.20;8.50;;;2.80;99.90;;;;;;6197984;23;20013;-80
2022/03/15 03:55:43;;;;;;;13.02;6.90;;;2.80;99.90;;;;;;6199037;23;20088;-80
2022/03/15 03:58:08;;;;;;;19.52;8.60;;;2.90;99.90;;;;;;6174190;23;20020;-80
2022/03/15 04:00:34;;;;;;;23.73;9.45;;;2.90;99.90;;;;;;6198959;23;20020;-80
2022/03/15 04:03:00;;;;;;;18.58;8.65;;;3.00;99.90;;;;;;6174327;23;20078;-80
2022/03/15 04:05:30;;;;;;;19.88;8.43;;;3.00;99.90;;;;;;6200135;23;20012;-80
2022/03/15 04:07:59;;;;;;;22.02;9.75;;;3.00;99.90;;;;;;6200203;23;20020;-80
2022/03/15 04:10:25;;;;;;;21.77;8.68;;;3.00;99.90;;;;;;6199477;23;20349;-80
2022/03/15 04:12:51;;;;;;;21.00;10.25;;;3.00;99.90;;;;;;6175951;23;20082;-80
2022/03/15 04:15:17;;;;;;;21.20;10.77;;;3.10;99.90;;;;;;6200731;23;20099;-80
2022/03/15 04:17:43;;;;;;;26.80;10.02;;;3.10;99.90;;;;;;6199111;23;20082;-80
2022/03/15 04:20:09;;;;;;;28.80;11.57;;;3.10;99.90;;;;;;6197441;23;20025;-80
2022/03/15 04:22:35;;;;;;;28.85;11.90;;;3.20;99.90;;;;;;6198536;23;20024;-80
2022/03/15 04:25:00;;;;;;;31.10;11.95;;;3.30;99.90;;;;;;6198749;23;20012;-80
2022/03/15 04:27:26;;;;;;;19.83;10.18;;;3.30;99.90;;;;;;6224148;23;20071;-80
2022/03/15 04:29:51;;;;;;;23.88;9.45;;;3.40;99.90;;;;;;6198819;23;20023;-80
2022/03/15 04:32:18;;;;;;;27.33;11.32;;;3.40;99.90;;;;;;6199604;23;20434;-80
2022/03/15 04:34:44;;;;;;;27.73;11.20;;;3.50;99.90;;;;;;6199031;23;20020;-80
2022/03/15 04:37:10;;;;;;;24.13;11.45;;;3.50;99.90;;;;;;6199776;23;20013;-80
2022/03/15 04:39:36;;;;;;;24.45;11.10;;;3.50;99.90;;;;;;6199885;23;20018;-80
2022/03/15 04:42:02;;;;;;;33.95;15.32;;;3.60;99.90;;;;;;6199655;23;20087;-80
2022/03/15 04:44:28;;;;;;;29.02;12.27;;;3.60;99.90;;;;;;6199284;23;20508;-80
2022/03/15 04:46:54;;;;;;;30.73;12.52;;;3.60;99.90;;;;;;6200251;23;20051;-80
2022/03/15 04:49:20;;;;;;;25.35;12.65;;;3.60;99.90;;;;;;6199746;23;20032;-80
2022/03/15 04:51:46;;;;;;;22.30;12.27;;;3.60;99.90;;;;;;6200428;23;20023;-80
2022/03/15 04:54:12;;;;;;;26.58;10.85;;;3.60;99.90;;;;;;6225624;23;20449;-80
2022/03/15 04:56:38;;;;;;;26.33;12.52;;;3.60;99.90;;;;;;6174608;23;20060;-80
2022/03/15 04:59:04;;;;;;;32.85;11.40;;;3.60;99.90;;;;;;6174213;23;20386;-80
2022/03/15 05:01:29;;;;;;;24.58;12.52;;;3.70;99.90;;;;;;6198237;23;20030;-80
2022/03/15 05:03:55;;;;;;;29.08;13.13;;;3.70;99.90;;;;;;6198747;23;20021;-80
2022/03/15 05:06:21;;;;;;;27.25;12.77;;;3.70;99.90;;;;;;6220442;23;20788;-80
2022/03/15 05:08:48;;;;;;;31.90;12.98;;;3.70;99.90;;;;;;6169073;23;20016;-80
2022/03/15 05:11:14;;;;;;;29.73;12.93;;;3.70;99.90;;;;;;6198847;23;20017;-80
2022/03/15 05:13:45;;;;;;;26.92;12.40;;;3.80;99.90;;;;;;6200755;23;20072;-80
2022/03/15 05:16:15;;;;;;;29.52;13.90;;;3.80;99.90;;;;;;6199728;23;20023;-80
2022/03/15 05:18:41;;;;;;;29.52;12.65;;;3.80;99.90;;;;;;6199495;23;20511;-80
2022/03/15 05:21:14;;;;;;;26.27;12.43;;;3.80;99.90;;;;;;6171933;23;20035;-80
2022/03/15 05:23:41;;;;;;;26.98;12.43;;;3.80;99.90;;;;;;6198064;23;20458;-80
2022/03/15 05:26:06;;;;;;;29.20;12.00;;;3.70;99.90;;;;;;6222767;23;20409;-80
2022/03/15 05:28:32;;;;;;;30.08;15.35;;;3.70;99.90;;;;;;6223671;23;20013;-80
2022/03/15 05:30:58;;;;;;;32.38;12.27;;;3.70;99.90;;;;;;6197771;23;20527;-80
2022/03/15 05:33:24;;;;;;;36.28;15.75;;;3.70;99.90;;;;;;6197986;23;20362;-80
2022/03/15 05:35:49;;;;;;;34.30;15.18;;;3.80;99.90;;;;;;6227406;23;20012;-80
2022/03/15 05:38:15;;;;;;;34.65;15.70;;;3.80;99.90;;;;;;6218541;23;20024;-77
2022/03/15 05:40:40;;;;;;;33.97;15.55;;;3.90;99.90;;;;;;6188210;23;20428;-77
2022/03/15 05:43:06;;;;;;;35.50;16.00;;;3.90;99.90;;;;;;6188417;23;20016;-78
2022/03/15 05:45:31;;;;;;;39.40;16.27;;;4.00;99.90;;;;;;6188487;23;20092;-77
2022/03/15 05:47:57;;;;;;;40.92;17.23;;;4.00;99.90;;;;;;6188620;23;20016;-78
2022/03/15 05:50:23;;;;;;;43.60;17.20;;;4.10;99.90;;;;;;6214694;23;20039;-79
2022/03/15 05:52:49;;;;;;;37.50;17.27;;;4.10;99.90;;;;;;6188290;23;20393;-79
2022/03/15 05:55:14;;;;;;;36.95;17.40;;;4.20;99.90;;;;;;6188388;23;20020;-77
2022/03/15 05:57:41;;;;;;;37.05;16.88;;;4.20;99.90;;;;;;6188388;23;20452;-77
2022/03/15 06:00:07;;;;;;;35.55;14.52;;;4.30;99.90;;;;;;6188107;23;20436;-78
2022/03/15 06:02:33;;;;;;;38.83;14.32;;;4.30;99.90;;;;;;6213540;23;20023;-78
2022/03/15 06:04:59;;;;;;;46.92;18.35;;;4.30;99.90;;;;;;6188523;23;20445;-78
2022/03/15 06:07:28;;;;;;;37.15;18.08;;;4.40;99.90;;;;;;6214976;23;20020;-77
2022/03/15 06:09:54;;;;;;;42.70;19.70;;;4.40;99.90;;;;;;6162995;23;20036;-77
2022/03/15 06:12:24;;;;;;;46.85;20.13;;;4.50;99.90;;;;;;6188513;23;20070;-78
2022/03/15 06:14:50;;;;;;;41.35;17.83;;;4.60;99.90;;;;;;6188068;23;20469;-79
2022/03/15 06:17:16;;;;;;;34.45;16.67;;;4.70;99.90;;;;;;6188217;23;20017;-78
2022/03/15 06:19:41;;;;;;;36.70;17.98;;;4.70;99.90;;;;;;6213115;23;20019;-77
2022/03/15 06:22:07;;;;;;;35.80;16.17;;;4.80;99.90;;;;;;6188113;23;20024;-77
2022/03/15 06:24:32;;;;;;;35.45;16.88;;;4.80;99.90;;;;;;6188034;23;20338;-77
2022/03/15 06:26:58;;;;;;;42.53;20.35;;;4.80;99.90;;;;;;6188098;23;20084;-78
2022/03/15 06:29:27;;;;;;;45.95;20.23;;;4.90;99.90;;;;;;6187998;23;20020;-78
2022/03/15 06:31:53;;;;;;;141.43;63.28;;;4.90;99.90;;;;;;6190393;23;20013;-81
2022/03/15 06:34:20;;;;;;;46.75;20.42;;;5.00;99.90;;;;;;6194329;23;20429;-80
2022/03/15 06:36:46;;;;;;;81.43;36.90;;;5.10;99.90;;;;;;6192533;23;20008;-80
2022/03/15 06:39:12;;;;;;;40.47;20.25;;;5.10;99.90;;;;;;6192151;23;20019;-81
2022/03/15 06:41:39;;;;;;;47.83;21.13;;;5.10;99.90;;;;;;6166248;23;20019;-80
2022/03/15 06:44:08;;;;;;;48.55;19.52;;;5.20;99.90;;;;;;6191130;23;20370;-80
2022/03/15 06:46:34;;;;;;;40.25;20.50;;;5.30;99.90;;;;;;6198120;23;20013;-80
2022/03/15 06:49:00;;;;;;;43.00;20.10;;;5.40;99.90;;;;;;6224560;23;20347;-80
2022/03/15 06:51:26;;;;;;;51.97;21.08;;;5.50;99.90;;;;;;6195010;23;20016;-81
2022/03/15 06:53:52;;;;;;;44.65;20.55;;;5.60;99.90;;;;;;6168070;23;20024;-81
2022/03/15 06:56:18;;;;;;;45.08;20.05;;;5.70;99.90;;;;;;6194100;23;20026;-80
2022/03/15 06:58:44;;;;;;;43.45;20.75;;;5.70;99.90;;;;;;6217715;23;20016;-80
2022/03/15 07:01:10;;;;;;;40.80;20.48;;;5.80;99.90;;;;;;6192050;23;20023;-81
2022/03/15 07:03:35;;;;;;;42.60;20.00;;;5.80;99.90;;;;;;6191499;23;20012;-81
2022/03/15 07:06:01;;;;;;;44.50;21.77;;;5.80;99.90;;;;;;6218198;23;20094;-81
2022/03/15 07:08:27;;;;;;;42.70;20.77;;;5.90;99.90;;;;;;6195121;23;20385;-80
2022/03/15 07:10:53;;;;;;;39.40;18.70;;;6.00;99.90;;;;;;6192357;23;20013;-81
2022/03/15 07:13:19;;;;;;;37.28;20.17;;;6.00;99.90;;;;;;6191318;23;20023;-80
2022/03/15 07:15:45;;;;;;;43.88;20.98;;;6.00;99.90;;;;;;6193445;23;20016;-81
2022/03/15 07:18:10;;;;;;;37.58;19.02;;;6.10;99.90;;;;;;6188943;23;20024;-81
2022/03/15 07:20:36;;;;;;;40.80;19.92;;;6.20;99.90;;;;;;6188734;23;20020;-81
2022/03/15 07:23:02;;;;;;;42.22;18.33;;;6.20;99.90;;;;;;6213970;23;20016;-81
2022/03/15 07:25:27;;;;;;;47.80;19.05;;;6.20;99.90;;;;;;6213410;23;20083;-81
2022/03/15 07:27:53;;;;;;;38.85;18.35;;;6.30;99.90;;;;;;6188369;23;20059;-81
2022/03/15 07:30:19;;;;;;;36.88;18.67;;;6.30;99.90;;;;;;6188484;23;20019;-81
2022/03/15 07:32:45;;;;;;;37.03;18.42;;;6.30;99.90;;;;;;6189224;23;20024;-80
2022/03/15 07:35:11;;;;;;;41.28;18.75;;;6.40;99.90;;;;;;6215279;23;20016;-81
2022/03/15 07:37:37;;;;;;;38.33;17.75;;;6.40;99.90;;;;;;6189892;23;20017;-80
2022/03/15 07:40:04;;;;;;;39.78;17.73;;;6.50;99.90;;;;;;6192256;23;20016;-80
2022/03/15 07:42:30;;;;;;;36.92;17.58;;;6.60;99.90;;;;;;6193966;23;20024;-80
2022/03/15 07:44:55;;;;;;;40.88;17.35;;;6.60;99.90;;;;;;6193678;23;20034;-81
2022/03/15 07:47:21;;;;;;;39.03;17.13;;;6.60;99.90;;;;;;6192580;23;20016;-81
2022/03/15 07:49:48;;;;;;;39.65;19.20;;;6.70;99.90;;;;;;6217661;23;20013;-81
2022/03/15 07:52:14;;;;;;;29.55;15.95;;;6.70;99.90;;;;;;6171016;23;20023;-81
2022/03/15 07:54:39;;;;;;;35.17;17.85;;;6.80;99.90;;;;;;6195442;23;20024;-81
2022/03/15 07:57:05;;;;;;;41.35;16.98;;;6.80;99.90;;;;;;6194727;23;20023;-81
2022/03/15 07:59:30;;;;;;;34.42;16.80;;;6.80;99.90;;;;;;6219392;23;20020;-81
2022/03/15 08:01:56;;;;;;;38.17;17.10;;;6.90;99.90;;;;;;6193005;23;20021;-81
2022/03/15 08:04:21;;;;;;;33.28;17.50;;;6.90;99.90;;;;;;6192753;23;20092;-79
2022/03/15 08:06:47;;;;;;;33.53;16.92;;;6.90;99.90;;;;;;6219036;23;20009;-79
2022/03/15 08:09:14;;;;;;;32.47;16.13;;;6.90;99.90;;;;;;6216823;23;20047;-79
2022/03/15 08:11:41;;;;;;;32.90;17.02;;;6.90;99.90;;;;;;6188473;23;20716;-79
2022/03/15 08:14:08;;;;;;;31.23;16.10;;;7.00;99.90;;;;;;6189246;23;20019;-79
2022/03/15 08:16:34;;;;;;;34.97;17.50;;;7.00;99.90;;;;;;6188886;23;20024;-79
2022/03/15 08:19:00;;;;;;;43.40;17.08;;;7.10;99.90;;;;;;6189320;23;20030;-80
2022/03/15 08:21:26;;;;;;;30.92;17.75;;;7.10;99.90;;;;;;6188798;23;20493;-80
2022/03/15 08:23:52;;;;;;;31.45;15.73;;;7.10;99.90;;;;;;6189471;23;20462;-80
2022/03/15 08:26:18;;;;;;;30.23;16.05;;;7.10;99.90;;;;;;6188740;23;20326;-80
2022/03/15 08:28:45;;;;;;;32.03;17.70;;;7.10;99.90;;;;;;6188953;23;20008;-80
2022/03/15 08:31:11;;;;;;;32.55;16.90;;;7.20;99.90;;;;;;6188427;23;20095;-80
2022/03/15 08:33:36;;;;;;;30.60;16.13;;;7.20;99.90;;;;;;6188843;23;20615;-79
2022/03/15 08:36:03;;;;;;;33.95;16.08;;;7.30;99.90;;;;;;6187472;23;20093;-80
2022/03/15 08:38:31;;;;;;;36.58;17.20;;;7.30;99.90;;;;;;6188570;23;20072;-80
2022/03/15 08:40:57;;;;;;;25.45;14.40;;;7.30;99.90;;;;;;6192106;23;20016;-80
2022/03/15 08:43:24;;;;;;;29.27;15.88;;;7.30;99.90;;;;;;6192026;23;20048;-78
2022/03/15 08:45:50;;;;;;;36.97;16.98;;;7.40;99.90;;;;;;6191237;23;20017;-80
2022/03/15 08:48:15;;;;;;;32.30;16.85;;;7.40;99.90;;;;;;6188102;23;20013;-80
2022/03/15 08:50:41;;;;;;;31.33;16.42;;;7.40;99.90;;;;;;6162939;23;20015;-80
2022/03/15 08:53:06;;;;;;;33.25;17.83;;;7.40;99.90;;;;;;6212613;23;20036;-80
2022/03/15 08:55:33;;;;;;;29.77;16.45;;;7.50;99.90;;;;;;6163246;23;20039;-80
2022/03/15 08:57:59;;;;;;;30.77;16.27;;;7.50;99.90;;;;;;6187119;23;20021;-80
2022/03/15 09:00:24;;;;;;;32.78;16.73;;;7.60;99.90;;;;;;6211591;23;20023;-80
2022/03/15 09:02:50;;;;;;;29.33;15.75;;;7.60;99.90;;;;;;6211986;23;20458;-81
2022/03/15 09:05:19;;;;;;;33.90;15.57;;;7.60;99.90;;;;;;6187442;23;20088;-81
2022/03/15 09:07:51;;;;;;;25.92;14.55;;;7.70;99.90;;;;;;6187717;23;20012;-81
2022/03/15 09:10:20;;;;;;;30.55;15.27;;;7.70;99.90;;;;;;6187307;23;20009;-81
2022/03/15 09:12:46;;;;;;;26.00;14.60;;;7.70;99.90;;;;;;6188064;23;20017;-81
2022/03/15 09:15:12;;;;;;;30.67;15.20;;;7.80;99.90;;;;;;6187542;23;20475;-81
2022/03/15 09:17:38;;;;;;;31.08;14.77;;;7.80;99.90;;;;;;6187283;23;20016;-81
2022/03/15 09:20:05;;;;;;;24.35;14.23;;;7.90;99.90;;;;;;6186798;23;20055;-81
2022/03/15 09:22:31;;;;;;;28.33;14.13;;;7.90;99.90;;;;;;6162371;23;20015;-80
2022/03/15 09:24:56;;;;;;;32.22;14.98;;;8.00;99.90;;;;;;6213608;23;20092;-81
2022/03/15 09:27:22;;;;;;;29.30;15.75;;;8.10;99.90;;;;;;6188139;23;20040;-81
2022/03/15 09:29:48;;;;;;;24.23;13.50;;;8.10;99.90;;;;;;6189368;23;20073;-81
2022/03/15 09:32:15;;;;;;;30.77;15.60;;;8.20;99.90;;;;;;6189305;23;20024;-81
2022/03/15 09:34:42;;;;;;;29.17;14.70;;;8.30;99.90;;;;;;6163719;23;20063;-81
2022/03/15 09:37:07;;;;;;;28.35;15.65;;;8.30;99.90;;;;;;6188471;23;20492;-81
2022/03/15 09:39:33;;;;;;;24.92;14.50;;;8.40;99.90;;;;;;6165016;23;20016;-81
2022/03/15 09:41:59;;;;;;;30.92;17.23;;;8.40;99.90;;;;;;6214173;23;20099;-81
2022/03/15 09:44:28;;;;;;;34.85;16.08;;;8.50;99.90;;;;;;6214727;23;20370;-81
2022/03/15 09:46:59;;;;;;;29.10;14.85;;;8.50;99.90;;;;;;6218180;23;20476;-81
2022/03/15 09:49:26;;;;;;;33.60;14.63;;;8.60;99.90;;;;;;6195143;23;20079;-81
2022/03/15 09:51:53;;;;;;;26.13;13.82;;;8.60;99.90;;;;;;6213679;23;20023;-81
2022/03/15 09:54:19;;;;;;;33.97;15.75;;;8.60;99.90;;;;;;6215172;23;20052;-80
2022/03/15 09:56:45;;;;;;;31.40;14.90;;;8.50;99.90;;;;;;6189048;23;20016;-81
2022/03/15 09:59:16;;;;;;;31.00;16.65;;;8.50;99.90;;;;;;6187289;23;20369;-80
2022/03/15 10:01:50;;;;;;;24.27;14.65;;;8.50;99.90;;;;;;6187779;23;20067;-82
2022/03/15 10:04:16;;;;;;;27.90;16.00;;;8.50;99.90;;;;;;6189149;23;20013;-81
2022/03/15 10:06:41;;;;;;;36.00;19.55;;;8.50;99.90;;;;;;6189763;23;20012;-81
2022/03/15 10:09:08;;;;;;;49.55;23.73;;;8.50;99.90;;;;;;6214243;23;20019;-81
2022/03/15 10:11:35;;;;;;;48.53;26.98;;;8.50;99.90;;;;;;6188516;23;20024;-81
2022/03/15 10:14:02;;;;;;;49.78;28.38;;;8.50;99.90;;;;;;6188485;23;20356;-81
2022/03/15 10:16:32;;;;;;;59.63;30.83;;;8.60;99.90;;;;;;6188573;23;20106;-81
2022/03/15 10:18:59;;;;;;;37.88;21.23;;;8.60;99.90;;;;;;6166796;23;20012;-82
2022/03/15 10:21:50;;;;;;;31.30;18.58;;;8.60;99.90;;;;;;6189914;23;20015;-81
2022/03/15 10:24:19;;;;;;;35.28;16.00;;;8.70;99.90;;;;;;6190698;23;20017;-81
2022/03/15 10:26:47;;;;;;;34.03;15.27;;;8.80;99.90;;;;;;6190585;23;20023;-82
2022/03/15 10:29:14;;;;;;;37.50;17.48;;;8.90;99.90;;;;;;6192123;23;20349;-82
2022/03/15 10:31:41;;;;;;;27.83;15.20;;;8.90;99.90;;;;;;6191536;23;20023;-81
2022/03/15 10:34:08;;;;;;;28.40;13.85;;;9.00;99.90;;;;;;6217211;23;20023;-82
2022/03/15 10:36:42;;;;;;;28.98;15.68;;;9.20;99.90;;;;;;6166893;23;20441;-81
2022/03/15 10:39:10;;;;;;;27.77;14.45;;;9.30;99.90;;;;;;6191620;23;20064;-81
2022/03/15 10:41:48;;;;;;;30.85;15.70;;;9.40;99.90;;;;;;6190339;23;20023;-81
2022/03/15 10:44:16;;;;;;;29.42;15.32;;;9.60;99.90;;;;;;6191085;23;20323;-81
2022/03/15 10:46:41;;;;;;;30.15;14.65;;;9.60;99.90;;;;;;6215320;23;20013;-81
2022/03/15 10:49:07;;;;;;;27.08;14.18;;;9.60;99.90;;;;;;6191943;23;20016;-81
2022/03/15 10:51:33;;;;;;;26.02;14.15;;;9.70;99.90;;;;;;6165537;23;20067;-81
2022/03/15 10:54:03;;;;;;;26.50;15.07;;;9.70;99.90;;;;;;6189848;23;20103;-81
2022/03/15 10:56:30;;;;;;;24.00;14.80;;;9.60;99.90;;;;;;6189667;23;20442;-81
2022/03/15 10:59:05;;;;;;;25.45;14.07;;;9.70;99.90;;;;;;6164851;23;20030;-81
2022/03/15 11:01:49;;;;;;;25.35;14.07;;;9.70;99.90;;;;;;6164602;23;20013;-80
2022/03/15 11:04:17;;;;;;;28.60;16.38;;;9.70;99.90;;;;;;6193927;23;20070;-80
2022/03/15 11:06:44;;;;;;;21.67;11.98;;;9.80;99.90;;;;;;6200890;23;20012;-80
2022/03/15 11:09:24;;;;;;;26.33;13.20;;;9.80;99.90;;;;;;6168682;23;20013;-80
2022/03/15 11:12:07;;;;;;;25.70;14.70;;;9.90;99.90;;;;;;6163449;23;20013;-80
2022/03/15 11:14:40;;;;;;;23.35;13.45;;;9.90;99.90;;;;;;6163939;23;20013;-80
2022/03/15 11:17:20;;;;;;;26.33;14.23;;;9.90;99.90;;;;;;6188629;23;20013;-81
2022/03/15 11:19:49;;;;;;;26.30;14.68;;;10.00;99.90;;;;;;6189306;23;20039;-80
2022/03/15 11:22:17;;;;;;;29.33;14.90;;;10.00;99.90;;;;;;6213313;23;20013;-81
2022/03/15 11:24:51;;;;;;;37.40;13.80;;;10.00;99.90;;;;;;6189501;23;20008;-80
2022/03/15 11:27:17;;;;;;;26.05;13.82;;;10.00;99.90;;;;;;6215005;23;20017;-81
2022/03/15 11:29:45;;;;;;;37.55;14.18;;;10.00;99.90;;;;;;6164388;23;20012;-81
2022/03/15 11:32:12;;;;;;;21.73;13.50;;;10.00;99.90;;;;;;6188793;23;20008;-81
2022/03/15 11:34:41;;;;;;;29.70;14.05;;;10.00;99.90;;;;;;6188805;23;20430;-81
2022/03/15 11:37:09;;;;;;;28.80;14.55;;;10.00;99.90;;;;;;6190032;23;20150;-81
2022/03/15 11:39:39;;;;;;;23.98;13.00;;;10.00;99.90;;;;;;6189639;23;20008;-81
2022/03/15 11:42:09;;;;;;;26.98;14.75;;;10.00;99.90;;;;;;6190843;23;20017;-81
2022/03/15 11:45:17;;;;;;;24.73;12.93;;;10.00;99.90;;;;;;6214098;23;20070;-82
2022/03/15 11:48:09;;;;;;;24.58;13.48;;;10.00;99.90;;;;;;6188984;23;20005;-82
2022/03/15 11:50:58;;;;;;;27.33;13.70;;;10.10;99.90;;;;;;6188977;23;20099;-82
2022/03/15 11:53:56;;;;;;;25.20;14.93;;;10.10;99.90;;;;;;6190144;23;20104;-82
2022/03/15 11:56:31;;;;;;;25.42;13.32;;;10.20;99.90;;;;;;6188867;23;20016;-82
2022/03/15 11:58:58;;;;;;;24.15;13.95;;;10.20;99.90;;;;;;6164693;23;20024;-82
2022/03/15 12:01:25;;;;;;;29.48;13.98;;;10.30;99.90;;;;;;6190016;23;20009;-82
2022/03/15 12:03:52;;;;;;;26.02;13.30;;;10.40;99.90;;;;;;6190053;23;20442;-80
2022/03/15 12:06:30;;;;;;;23.63;12.30;;;10.50;99.90;;;;;;6189155;23;20028;-80
2022/03/15 12:08:58;;;;;;;28.85;13.45;;;10.60;99.90;;;;;;6189409;23;20012;-80
2022/03/15 12:11:28;;;;;;;26.10;12.60;;;10.70;99.90;;;;;;6188612;23;20062;-80
2022/03/15 12:14:08;;;;;;;25.52;13.00;;;10.80;99.90;;;;;;6189713;23;20091;-80
2022/03/15 12:16:41;;;;;;;24.23;11.27;;;10.90;99.90;;;;;;6189450;23;20013;-80
2022/03/15 12:19:23;;;;;;;22.92;11.40;;;10.90;99.90;;;;;;6189411;23;20024;-79
2022/03/15 12:22:11;;;;;;;30.23;13.75;;;11.00;99.90;;;;;;6187914;23;20025;-80
2022/03/15 12:24:45;;;;;;;22.40;11.43;;;10.90;99.90;;;;;;6189535;23;20067;-80
2022/03/15 12:27:16;;;;;;;25.38;12.27;;;11.00;99.90;;;;;;6190185;23;20035;-80
2022/03/15 12:29:56;;;;;;;27.90;14.68;;;11.10;99.90;;;;;;6214408;23;20087;-80
2022/03/15 12:32:22;;;;;;;20.98;11.65;;;11.10;99.90;;;;;;6189640;23;20020;-80
2022/03/15 12:34:53;;;;;;;19.77;11.20;;;11.20;99.90;;;;;;6214622;23;20068;-80
2022/03/15 12:37:35;;;;;;;23.55;12.00;;;11.30;99.90;;;;;;6189644;23;20042;-80
2022/03/15 12:40:03;;;;;;;18.40;10.80;;;11.40;99.90;;;;;;6190035;23;20013;-79